sensor_id;sensor_type;location;lat;lon;timestamp;P1;durP1;ratioP1;P2;durP2;ratioP2
78482;SDS011;67772;50.158;8.658;2023-02-28T00:02:13;5.53;;;2.37;;
78482;SDS011;67772;50.158;8.658;2023-02-28T00:04:38;6.33;;;2.70;;
78482;SDS011;67772;50.158;8.658;2023-02-28T00:07:03;3.37;;;2.33;;
78482;SDS011;67772;50.158;8.658;2023-02-28T00:09:28;3.93;;;3.03;;
78482;SDS011;67772;50.158;8.658;2023-02-28T00:11:54;3.40;;;2.10;;
78482;SDS011;67772;50.158;8.658;2023-02-28T00:14:19;3.13;;;2.00;;
78482;SDS011;67772;50.158;8.658;2023-02-28T00:16:44;4.07;;;2.20;;
78482;SDS011;67772;50.158;8.658;2023-02-28T00:19:10;6.65;;;2.30;;
78482;SDS011;67772;50.158;8.658;2023-02-28T00:21:38;4.38;;;2.38;;
78482;SDS011;67772;50.158;8.658;2023-02-28T00:24:05;2.50;;;2.05;;
78482;SDS011;67772;50.158;8.658;2023-02-28T00:26:31;4.10;;;2.45;;
78482;SDS011;67772;50.158;8.658;2023-02-28T00:28:57;3.08;;;2.22;;
78482;SDS011;67772;50.158;8.658;2023-02-28T00:31:22;3.42;;;2.13;;
78482;SDS011;67772;50.158;8.658;2023-02-28T00:33:47;3.40;;;2.30;;
78482;SDS011;67772;50.158;8.658;2023-02-28T00:36:12;5.27;;;2.60;;
78482;SDS011;67772;50.158;8.658;2023-02-28T00:38:38;3.37;;;2.13;;
78482;SDS011;67772;50.158;8.658;2023-02-28T00:41:05;3.08;;;2.33;;
78482;SDS011;67772;50.158;8.658;2023-02-28T00:43:34;3.50;;;2.42;;
78482;SDS011;67772;50.158;8.658;2023-02-28T00:46:01;2.92;;;2.25;;
78482;SDS011;67772;50.158;8.658;2023-02-28T00:48:27;2.83;;;2.13;;
78482;SDS011;67772;50.158;8.658;2023-02-28T00:50:53;4.00;;;2.20;;
78482;SDS011;67772;50.158;8.658;2023-02-28T00:53:18;4.47;;;2.60;;
78482;SDS011;67772;50.158;8.658;2023-02-28T00:55:44;3.90;;;2.23;;
78482;SDS011;67772;50.158;8.658;2023-02-28T00:58:09;4.07;;;2.60;;
78482;SDS011;67772;50.158;8.658;2023-02-28T01:00:34;3.87;;;2.27;;
78482;SDS011;67772;50.158;8.658;2023-02-28T01:02:59;4.53;;;2.40;;
78482;SDS011;67772;50.158;8.658;2023-02-28T01:05:25;4.60;;;2.63;;
78482;SDS011;67772;50.158;8.658;2023-02-28T01:07:50;6.05;;;2.85;;
78482;SDS011;67772;50.158;8.658;2023-02-28T01:10:15;3.60;;;2.10;;
78482;SDS011;67772;50.158;8.658;2023-02-28T01:12:41;5.22;;;2.30;;
78482;SDS011;67772;50.158;8.658;2023-02-28T01:15:06;3.67;;;2.53;;
78482;SDS011;67772;50.158;8.658;2023-02-28T01:17:32;3.33;;;2.70;;
78482;SDS011;67772;50.158;8.658;2023-02-28T01:19:57;4.37;;;2.93;;
78482;SDS011;67772;50.158;8.658;2023-02-28T01:22:22;4.50;;;2.80;;
78482;SDS011;67772;50.158;8.658;2023-02-28T01:24:48;4.80;;;3.17;;
78482;SDS011;67772;50.158;8.658;2023-02-28T01:27:13;2.73;;;2.13;;
78482;SDS011;67772;50.158;8.658;2023-02-28T01:29:38;3.63;;;2.70;;
78482;SDS011;67772;50.158;8.658;2023-02-28T01:32:03;3.83;;;2.33;;
78482;SDS011;67772;50.158;8.658;2023-02-28T01:34:29;7.38;;;3.10;;
78482;SDS011;67772;50.158;8.658;2023-02-28T01:36:54;3.60;;;2.67;;
78482;SDS011;67772;50.158;8.658;2023-02-28T01:39:20;5.03;;;2.60;;
78482;SDS011;67772;50.158;8.658;2023-02-28T01:41:45;4.60;;;3.00;;
78482;SDS011;67772;50.158;8.658;2023-02-28T01:47:13;4.22;;;2.55;;
78482;SDS011;67772;50.158;8.658;2023-02-28T01:49:39;3.40;;;2.35;;
78482;SDS011;67772;50.158;8.658;2023-02-28T01:52:04;4.45;;;2.80;;
78482;SDS011;67772;50.158;8.658;2023-02-28T01:54:30;4.57;;;2.78;;
78482;SDS011;67772;50.158;8.658;2023-02-28T01:57:00;6.13;;;3.10;;
78482;SDS011;67772;50.158;8.658;2023-02-28T01:59:31;5.00;;;2.47;;
78482;SDS011;67772;50.158;8.658;2023-02-28T02:02:01;5.72;;;2.72;;
78482;SDS011;67772;50.158;8.658;2023-02-28T02:04:28;4.28;;;3.13;;
78482;SDS011;67772;50.158;8.658;2023-02-28T02:07:02;6.50;;;3.53;;
78482;SDS011;67772;50.158;8.658;2023-02-28T02:09:28;3.75;;;2.53;;
78482;SDS011;67772;50.158;8.658;2023-02-28T02:11:53;4.10;;;2.97;;
78482;SDS011;67772;50.158;8.658;2023-02-28T02:17:03;4.55;;;3.10;;
78482;SDS011;67772;50.158;8.658;2023-02-28T02:19:43;5.13;;;2.78;;
78482;SDS011;67772;50.158;8.658;2023-02-28T02:22:37;4.90;;;3.03;;
78482;SDS011;67772;50.158;8.658;2023-02-28T02:25:29;3.33;;;2.22;;
78482;SDS011;67772;50.158;8.658;2023-02-28T02:31:04;3.72;;;2.40;;
78482;SDS011;67772;50.158;8.658;2023-02-28T02:33:47;4.18;;;2.80;;
78482;SDS011;67772;50.158;8.658;2023-02-28T02:36:27;3.92;;;2.53;;
78482;SDS011;67772;50.158;8.658;2023-02-28T02:41:53;3.38;;;2.60;;
78482;SDS011;67772;50.158;8.658;2023-02-28T02:44:30;4.57;;;2.67;;
78482;SDS011;67772;50.158;8.658;2023-02-28T02:47:05;5.55;;;2.55;;
78482;SDS011;67772;50.158;8.658;2023-02-28T02:49:36;4.30;;;2.88;;
78482;SDS011;67772;50.158;8.658;2023-02-28T02:52:04;4.80;;;2.72;;
78482;SDS011;67772;50.158;8.658;2023-02-28T02:54:34;4.53;;;2.67;;
78482;SDS011;67772;50.158;8.658;2023-02-28T02:57:03;4.05;;;2.83;;
78482;SDS011;67772;50.158;8.658;2023-02-28T02:59:35;4.93;;;2.70;;
78482;SDS011;67772;50.158;8.658;2023-02-28T03:02:04;3.83;;;2.58;;
78482;SDS011;67772;50.158;8.658;2023-02-28T03:04:34;3.42;;;2.45;;
78482;SDS011;67772;50.158;8.658;2023-02-28T03:07:03;4.28;;;2.42;;
78482;SDS011;67772;50.158;8.658;2023-02-28T03:09:28;5.15;;;2.65;;
78482;SDS011;67772;50.158;8.658;2023-02-28T03:11:58;4.63;;;2.90;;
78482;SDS011;67772;50.158;8.658;2023-02-28T03:20:01;3.25;;;2.10;;
78482;SDS011;67772;50.158;8.658;2023-02-28T03:25:33;3.63;;;2.30;;
78482;SDS011;67772;50.158;8.658;2023-02-28T03:28:12;3.78;;;2.28;;
78482;SDS011;67772;50.158;8.658;2023-02-28T03:30:50;5.32;;;2.17;;
78482;SDS011;67772;50.158;8.658;2023-02-28T03:33:30;3.28;;;2.58;;
78482;SDS011;67772;50.158;8.658;2023-02-28T03:36:05;2.78;;;2.00;;
78482;SDS011;67772;50.158;8.658;2023-02-28T03:38:43;7.38;;;2.90;;
78482;SDS011;67772;50.158;8.658;2023-02-28T03:41:17;3.85;;;2.38;;
78482;SDS011;67772;50.158;8.658;2023-02-28T03:43:56;5.93;;;2.72;;
78482;SDS011;67772;50.158;8.658;2023-02-28T03:46:28;3.53;;;2.40;;
78482;SDS011;67772;50.158;8.658;2023-02-28T03:49:02;3.75;;;2.70;;
78482;SDS011;67772;50.158;8.658;2023-02-28T03:51:33;4.47;;;2.67;;
78482;SDS011;67772;50.158;8.658;2023-02-28T03:54:03;3.63;;;2.55;;
78482;SDS011;67772;50.158;8.658;2023-02-28T03:56:44;3.75;;;2.65;;
78482;SDS011;67772;50.158;8.658;2023-02-28T04:01:47;4.00;;;3.03;;
78482;SDS011;67772;50.158;8.658;2023-02-28T04:04:14;5.72;;;3.17;;
78482;SDS011;67772;50.158;8.658;2023-02-28T04:06:41;5.55;;;3.28;;
78482;SDS011;67772;50.158;8.658;2023-02-28T04:09:07;8.43;;;3.60;;
78482;SDS011;67772;50.158;8.658;2023-02-28T04:11:36;7.38;;;3.47;;
78482;SDS011;67772;50.158;8.658;2023-02-28T04:14:04;7.78;;;3.40;;
78482;SDS011;67772;50.158;8.658;2023-02-28T04:16:31;5.32;;;2.55;;
78482;SDS011;67772;50.158;8.658;2023-02-28T04:18:57;5.68;;;2.95;;
78482;SDS011;67772;50.158;8.658;2023-02-28T04:21:40;6.35;;;3.30;;
78482;SDS011;67772;50.158;8.658;2023-02-28T04:24:17;5.30;;;2.78;;
78482;SDS011;67772;50.158;8.658;2023-02-28T04:26:54;6.82;;;2.70;;
78482;SDS011;67772;50.158;8.658;2023-02-28T04:29:21;5.43;;;3.15;;
78482;SDS011;67772;50.158;8.658;2023-02-28T04:31:49;6.80;;;3.45;;
78482;SDS011;67772;50.158;8.658;2023-02-28T04:34:14;3.60;;;2.60;;
78482;SDS011;67772;50.158;8.658;2023-02-28T04:36:40;6.55;;;3.38;;
78482;SDS011;67772;50.158;8.658;2023-02-28T04:39:05;5.68;;;3.03;;
78482;SDS011;67772;50.158;8.658;2023-02-28T04:41:31;6.07;;;3.15;;
78482;SDS011;67772;50.158;8.658;2023-02-28T04:43:56;8.67;;;3.47;;
78482;SDS011;67772;50.158;8.658;2023-02-28T04:46:22;4.70;;;2.97;;
78482;SDS011;67772;50.158;8.658;2023-02-28T04:48:47;5.45;;;2.78;;
78482;SDS011;67772;50.158;8.658;2023-02-28T04:51:13;6.55;;;3.13;;
78482;SDS011;67772;50.158;8.658;2023-02-28T04:53:41;6.45;;;3.40;;
78482;SDS011;67772;50.158;8.658;2023-02-28T04:56:07;4.28;;;3.15;;
78482;SDS011;67772;50.158;8.658;2023-02-28T04:58:36;4.55;;;2.90;;
78482;SDS011;67772;50.158;8.658;2023-02-28T05:01:02;4.50;;;2.63;;
78482;SDS011;67772;50.158;8.658;2023-02-28T05:03:28;4.22;;;2.60;;
78482;SDS011;67772;50.158;8.658;2023-02-28T05:05:54;4.28;;;2.67;;
78482;SDS011;67772;50.158;8.658;2023-02-28T05:08:19;4.23;;;2.73;;
78482;SDS011;67772;50.158;8.658;2023-02-28T05:10:44;4.93;;;3.13;;
78482;SDS011;67772;50.158;8.658;2023-02-28T05:13:11;4.47;;;2.77;;
78482;SDS011;67772;50.158;8.658;2023-02-28T05:15:37;7.50;;;3.03;;
78482;SDS011;67772;50.158;8.658;2023-02-28T05:18:03;5.75;;;3.00;;
78482;SDS011;67772;50.158;8.658;2023-02-28T05:20:28;4.70;;;2.42;;
78482;SDS011;67772;50.158;8.658;2023-02-28T05:22:53;3.27;;;2.47;;
78482;SDS011;67772;50.158;8.658;2023-02-28T05:25:19;5.88;;;2.90;;
78482;SDS011;67772;50.158;8.658;2023-02-28T05:27:46;5.25;;;2.90;;
78482;SDS011;67772;50.158;8.658;2023-02-28T05:30:12;4.00;;;2.25;;
78482;SDS011;67772;50.158;8.658;2023-02-28T05:32:38;3.42;;;2.10;;
78482;SDS011;67772;50.158;8.658;2023-02-28T05:35:04;5.50;;;2.97;;
78482;SDS011;67772;50.158;8.658;2023-02-28T05:37:30;5.78;;;2.47;;
78482;SDS011;67772;50.158;8.658;2023-02-28T05:39:55;3.88;;;2.50;;
78482;SDS011;67772;50.158;8.658;2023-02-28T05:42:20;4.63;;;2.83;;
78482;SDS011;67772;50.158;8.658;2023-02-28T05:44:46;5.13;;;2.67;;
78482;SDS011;67772;50.158;8.658;2023-02-28T05:47:11;3.67;;;2.58;;
78482;SDS011;67772;50.158;8.658;2023-02-28T05:49:40;3.38;;;2.55;;
78482;SDS011;67772;50.158;8.658;2023-02-28T05:52:05;5.05;;;2.42;;
78482;SDS011;67772;50.158;8.658;2023-02-28T05:54:30;3.50;;;2.33;;
78482;SDS011;67772;50.158;8.658;2023-02-28T05:56:56;4.60;;;3.10;;
78482;SDS011;67772;50.158;8.658;2023-02-28T05:59:21;6.23;;;2.20;;
78482;SDS011;67772;50.158;8.658;2023-02-28T06:01:46;6.27;;;2.53;;
78482;SDS011;67772;50.158;8.658;2023-02-28T06:04:15;4.55;;;2.38;;
78482;SDS011;67772;50.158;8.658;2023-02-28T06:06:47;3.42;;;2.50;;
78482;SDS011;67772;50.158;8.658;2023-02-28T06:09:13;4.25;;;2.50;;
78482;SDS011;67772;50.158;8.658;2023-02-28T06:11:39;4.00;;;2.72;;
78482;SDS011;67772;50.158;8.658;2023-02-28T06:14:04;4.47;;;2.15;;
78482;SDS011;67772;50.158;8.658;2023-02-28T06:16:31;3.65;;;2.03;;
78482;SDS011;67772;50.158;8.658;2023-02-28T06:18:58;3.80;;;2.45;;
78482;SDS011;67772;50.158;8.658;2023-02-28T06:21:25;2.97;;;2.13;;
78482;SDS011;67772;50.158;8.658;2023-02-28T06:23:55;4.38;;;2.53;;
78482;SDS011;67772;50.158;8.658;2023-02-28T06:26:21;4.20;;;2.38;;
78482;SDS011;67772;50.158;8.658;2023-02-28T06:28:47;3.75;;;2.17;;
78482;SDS011;67772;50.158;8.658;2023-02-28T06:31:16;5.47;;;2.75;;
78482;SDS011;67772;50.158;8.658;2023-02-28T06:33:42;9.95;;;2.50;;
78482;SDS011;67772;50.158;8.658;2023-02-28T06:36:09;5.53;;;2.55;;
78482;SDS011;67772;50.158;8.658;2023-02-28T06:38:35;4.75;;;2.50;;
78482;SDS011;67772;50.158;8.658;2023-02-28T06:41:02;5.07;;;2.38;;
78482;SDS011;67772;50.158;8.658;2023-02-28T06:43:28;5.32;;;2.60;;
78482;SDS011;67772;50.158;8.658;2023-02-28T06:45:55;3.65;;;2.22;;
78482;SDS011;67772;50.158;8.658;2023-02-28T06:48:22;3.28;;;1.83;;
78482;SDS011;67772;50.158;8.658;2023-02-28T06:50:47;4.95;;;2.63;;
78482;SDS011;67772;50.158;8.658;2023-02-28T06:53:12;4.47;;;2.40;;
78482;SDS011;67772;50.158;8.658;2023-02-28T06:55:38;3.80;;;2.07;;
78482;SDS011;67772;50.158;8.658;2023-02-28T06:58:04;3.90;;;2.40;;
78482;SDS011;67772;50.158;8.658;2023-02-28T07:00:40;4.15;;;2.38;;
78482;SDS011;67772;50.158;8.658;2023-02-28T07:03:08;3.55;;;2.22;;
78482;SDS011;67772;50.158;8.658;2023-02-28T07:05:35;4.20;;;2.10;;
78482;SDS011;67772;50.158;8.658;2023-02-28T07:08:00;2.88;;;2.13;;
78482;SDS011;67772;50.158;8.658;2023-02-28T07:10:32;2.72;;;1.92;;
78482;SDS011;67772;50.158;8.658;2023-02-28T07:13:23;3.85;;;2.17;;
78482;SDS011;67772;50.158;8.658;2023-02-28T07:15:55;5.53;;;2.42;;
78482;SDS011;67772;50.158;8.658;2023-02-28T07:18:25;3.28;;;2.17;;
78482;SDS011;67772;50.158;8.658;2023-02-28T07:20:52;4.93;;;2.28;;
78482;SDS011;67772;50.158;8.658;2023-02-28T07:23:17;3.15;;;2.30;;
78482;SDS011;67772;50.158;8.658;2023-02-28T07:25:43;3.25;;;2.20;;
78482;SDS011;67772;50.158;8.658;2023-02-28T07:28:08;5.25;;;2.65;;
78482;SDS011;67772;50.158;8.658;2023-02-28T07:30:34;5.03;;;2.72;;
78482;SDS011;67772;50.158;8.658;2023-02-28T07:32:59;6.23;;;2.97;;
78482;SDS011;67772;50.158;8.658;2023-02-28T07:35:24;3.17;;;2.50;;
78482;SDS011;67772;50.158;8.658;2023-02-28T07:37:50;3.10;;;2.40;;
78482;SDS011;67772;50.158;8.658;2023-02-28T07:40:15;4.25;;;2.63;;
78482;SDS011;67772;50.158;8.658;2023-02-28T07:42:43;4.60;;;2.65;;
78482;SDS011;67772;50.158;8.658;2023-02-28T07:45:08;5.10;;;2.60;;
78482;SDS011;67772;50.158;8.658;2023-02-28T07:47:36;3.75;;;2.75;;
78482;SDS011;67772;50.158;8.658;2023-02-28T07:50:06;4.70;;;2.60;;
78482;SDS011;67772;50.158;8.658;2023-02-28T07:52:34;3.15;;;2.38;;
78482;SDS011;67772;50.158;8.658;2023-02-28T07:55:01;5.63;;;2.85;;
78482;SDS011;67772;50.158;8.658;2023-02-28T07:57:26;4.65;;;2.28;;
78482;SDS011;67772;50.158;8.658;2023-02-28T07:59:52;3.93;;;2.40;;
78482;SDS011;67772;50.158;8.658;2023-02-28T08:02:18;3.90;;;2.53;;
78482;SDS011;67772;50.158;8.658;2023-02-28T08:04:43;5.95;;;2.90;;
78482;SDS011;67772;50.158;8.658;2023-02-28T08:07:09;6.35;;;2.95;;
78482;SDS011;67772;50.158;8.658;2023-02-28T08:09:38;3.38;;;2.65;;
78482;SDS011;67772;50.158;8.658;2023-02-28T08:12:04;4.63;;;2.72;;
78482;SDS011;67772;50.158;8.658;2023-02-28T08:14:32;6.32;;;3.75;;
78482;SDS011;67772;50.158;8.658;2023-02-28T08:16:57;3.10;;;2.75;;
78482;SDS011;67772;50.158;8.658;2023-02-28T08:19:22;4.00;;;3.27;;
78482;SDS011;67772;50.158;8.658;2023-02-28T08:21:48;3.77;;;3.00;;
78482;SDS011;67772;50.158;8.658;2023-02-28T08:24:13;4.50;;;3.17;;
78482;SDS011;67772;50.158;8.658;2023-02-28T08:26:38;3.77;;;2.90;;
78482;SDS011;67772;50.158;8.658;2023-02-28T08:29:04;3.92;;;3.05;;
78482;SDS011;67772;50.158;8.658;2023-02-28T08:31:29;3.43;;;2.90;;
78482;SDS011;67772;50.158;8.658;2023-02-28T08:33:54;3.47;;;2.43;;
78482;SDS011;67772;50.158;8.658;2023-02-28T08:36:23;5.47;;;2.83;;
78482;SDS011;67772;50.158;8.658;2023-02-28T08:38:49;3.95;;;2.53;;
78482;SDS011;67772;50.158;8.658;2023-02-28T08:41:14;5.50;;;2.63;;
78482;SDS011;67772;50.158;8.658;2023-02-28T08:43:40;3.63;;;3.00;;
78482;SDS011;67772;50.158;8.658;2023-02-28T08:46:06;3.78;;;2.80;;
78482;SDS011;67772;50.158;8.658;2023-02-28T08:48:33;4.53;;;3.05;;
78482;SDS011;67772;50.158;8.658;2023-02-28T08:51:03;2.80;;;2.53;;
78482;SDS011;67772;50.158;8.658;2023-02-28T08:53:31;4.03;;;3.10;;
78482;SDS011;67772;50.158;8.658;2023-02-28T08:58:23;4.50;;;3.72;;
78482;SDS011;67772;50.158;8.658;2023-02-28T09:00:48;3.50;;;3.20;;
78482;SDS011;67772;50.158;8.658;2023-02-28T09:03:15;3.47;;;2.85;;
78482;SDS011;67772;50.158;8.658;2023-02-28T09:05:40;4.33;;;2.80;;
78482;SDS011;67772;50.158;8.658;2023-02-28T09:08:05;3.13;;;2.70;;
78482;SDS011;67772;50.158;8.658;2023-02-28T09:10:31;4.38;;;3.00;;
78482;SDS011;67772;50.158;8.658;2023-02-28T09:12:56;3.28;;;2.75;;
78482;SDS011;67772;50.158;8.658;2023-02-28T09:15:21;3.33;;;3.03;;
78482;SDS011;67772;50.158;8.658;2023-02-28T09:17:47;2.90;;;2.60;;
78482;SDS011;67772;50.158;8.658;2023-02-28T09:20:12;3.45;;;2.80;;
78482;SDS011;67772;50.158;8.658;2023-02-28T09:22:38;4.37;;;2.93;;
78482;SDS011;67772;50.158;8.658;2023-02-28T09:25:03;2.60;;;2.40;;
78482;SDS011;67772;50.158;8.658;2023-02-28T09:27:29;3.38;;;2.60;;
78482;SDS011;67772;50.158;8.658;2023-02-28T09:29:54;3.43;;;2.83;;
78482;SDS011;67772;50.158;8.658;2023-02-28T09:32:19;3.57;;;3.00;;
78482;SDS011;67772;50.158;8.658;2023-02-28T09:34:45;3.13;;;2.83;;
78482;SDS011;67772;50.158;8.658;2023-02-28T09:37:10;3.03;;;2.83;;
78482;SDS011;67772;50.158;8.658;2023-02-28T09:39:35;4.30;;;3.00;;
78482;SDS011;67772;50.158;8.658;2023-02-28T09:42:01;4.18;;;3.13;;
78482;SDS011;67772;50.158;8.658;2023-02-28T09:46:55;3.47;;;3.10;;
78482;SDS011;67772;50.158;8.658;2023-02-28T09:49:25;3.30;;;3.00;;
78482;SDS011;67772;50.158;8.658;2023-02-28T09:52:02;3.13;;;2.80;;
78482;SDS011;67772;50.158;8.658;2023-02-28T09:54:35;3.95;;;2.83;;
78482;SDS011;67772;50.158;8.658;2023-02-28T10:05:17;4.20;;;3.60;;
78482;SDS011;67772;50.158;8.658;2023-02-28T10:13:16;3.40;;;3.10;;
78482;SDS011;67772;50.158;8.658;2023-02-28T10:15:50;3.65;;;3.35;;
78482;SDS011;67772;50.158;8.658;2023-02-28T10:18:21;4.00;;;3.50;;
78482;SDS011;67772;50.158;8.658;2023-02-28T10:21:20;4.20;;;3.28;;
78482;SDS011;67772;50.158;8.658;2023-02-28T10:23:49;4.60;;;4.07;;
78482;SDS011;67772;50.158;8.658;2023-02-28T10:26:24;4.63;;;3.22;;
78482;SDS011;67772;50.158;8.658;2023-02-28T10:28:53;3.83;;;3.13;;
78482;SDS011;67772;50.158;8.658;2023-02-28T10:31:19;3.50;;;2.63;;
78482;SDS011;67772;50.158;8.658;2023-02-28T10:33:45;4.20;;;3.40;;
78482;SDS011;67772;50.158;8.658;2023-02-28T10:36:13;4.38;;;3.35;;
78482;SDS011;67772;50.158;8.658;2023-02-28T10:38:41;4.88;;;3.10;;
78482;SDS011;67772;50.158;8.658;2023-02-28T10:41:12;3.78;;;2.67;;
78482;SDS011;67772;50.158;8.658;2023-02-28T10:43:40;4.28;;;3.03;;
78482;SDS011;67772;50.158;8.658;2023-02-28T10:48:39;4.32;;;3.25;;
78482;SDS011;67772;50.158;8.658;2023-02-28T10:51:24;4.38;;;3.70;;
78482;SDS011;67772;50.158;8.658;2023-02-28T10:53:50;4.47;;;3.25;;
78482;SDS011;67772;50.158;8.658;2023-02-28T10:56:18;5.30;;;3.58;;
78482;SDS011;67772;50.158;8.658;2023-02-28T11:03:57;4.35;;;3.95;;
78482;SDS011;67772;50.158;8.658;2023-02-28T11:06:29;4.10;;;3.70;;
78482;SDS011;67772;50.158;8.658;2023-02-28T11:09:02;4.20;;;3.42;;
78482;SDS011;67772;50.158;8.658;2023-02-28T11:11:42;4.88;;;4.07;;
78482;SDS011;67772;50.158;8.658;2023-02-28T11:14:20;3.88;;;3.58;;
78482;SDS011;67772;50.158;8.658;2023-02-28T11:16:48;4.32;;;3.80;;
78482;SDS011;67772;50.158;8.658;2023-02-28T11:19:28;3.92;;;3.53;;
78482;SDS011;67772;50.158;8.658;2023-02-28T11:22:01;4.10;;;3.70;;
78482;SDS011;67772;50.158;8.658;2023-02-28T11:24:30;3.90;;;3.58;;
78482;SDS011;67772;50.158;8.658;2023-02-28T11:27:00;6.07;;;3.80;;
78482;SDS011;67772;50.158;8.658;2023-02-28T11:29:26;3.80;;;3.50;;
78482;SDS011;67772;50.158;8.658;2023-02-28T11:34:31;4.82;;;4.32;;
78482;SDS011;67772;50.158;8.658;2023-02-28T11:36:58;4.60;;;4.13;;
78482;SDS011;67772;50.158;8.658;2023-02-28T11:39:25;6.07;;;5.47;;
78482;SDS011;67772;50.158;8.658;2023-02-28T11:44:39;5.10;;;4.60;;
78482;SDS011;67772;50.158;8.658;2023-02-28T11:47:25;4.63;;;4.20;;
78482;SDS011;67772;50.158;8.658;2023-02-28T11:55:25;4.43;;;4.03;;
78482;SDS011;67772;50.158;8.658;2023-02-28T12:11:52;4.85;;;4.35;;
78482;SDS011;67772;50.158;8.658;2023-02-28T12:17:37;5.05;;;4.63;;
78482;SDS011;67772;50.158;8.658;2023-02-28T12:26:09;6.20;;;4.55;;
78482;SDS011;67772;50.158;8.658;2023-02-28T12:31:26;4.93;;;4.47;;
78482;SDS011;67772;50.158;8.658;2023-02-28T12:33:57;4.50;;;4.10;;
78482;SDS011;67772;50.158;8.658;2023-02-28T12:36:27;4.38;;;4.07;;
78482;SDS011;67772;50.158;8.658;2023-02-28T12:38:56;4.97;;;4.57;;
78482;SDS011;67772;50.158;8.658;2023-02-28T12:43:52;4.73;;;4.30;;
78482;SDS011;67772;50.158;8.658;2023-02-28T12:46:24;7.53;;;4.43;;
78482;SDS011;67772;50.158;8.658;2023-02-28T12:48:58;4.65;;;4.25;;
78482;SDS011;67772;50.158;8.658;2023-02-28T12:51:30;4.60;;;4.20;;
78482;SDS011;67772;50.158;8.658;2023-02-28T12:54:00;4.75;;;4.28;;
78482;SDS011;67772;50.158;8.658;2023-02-28T12:59:37;4.43;;;3.87;;
78482;SDS011;67772;50.158;8.658;2023-02-28T13:10:45;5.60;;;3.60;;
78482;SDS011;67772;50.158;8.658;2023-02-28T13:13:16;5.05;;;4.00;;
78482;SDS011;67772;50.158;8.658;2023-02-28T13:18:44;5.10;;;4.05;;
78482;SDS011;67772;50.158;8.658;2023-02-28T13:21:27;3.65;;;2.90;;
78482;SDS011;67772;50.158;8.658;2023-02-28T13:28:59;5.30;;;3.47;;
78482;SDS011;67772;50.158;8.658;2023-02-28T13:31:26;4.85;;;3.53;;
78482;SDS011;67772;50.158;8.658;2023-02-28T13:36:28;5.53;;;3.72;;
78482;SDS011;67772;50.158;8.658;2023-02-28T13:44:06;6.85;;;3.78;;
78482;SDS011;67772;50.158;8.658;2023-02-28T13:46:34;4.93;;;3.15;;
78482;SDS011;67772;50.158;8.658;2023-02-28T13:57:29;4.72;;;3.20;;
78482;SDS011;67772;50.158;8.658;2023-02-28T14:05:30;5.05;;;3.30;;
78482;SDS011;67772;50.158;8.658;2023-02-28T14:07:59;4.82;;;3.55;;
78482;SDS011;67772;50.158;8.658;2023-02-28T14:10:32;5.80;;;3.17;;
78482;SDS011;67772;50.158;8.658;2023-02-28T14:13:11;7.03;;;3.65;;
78482;SDS011;67772;50.158;8.658;2023-02-28T14:21:02;4.43;;;3.40;;
78482;SDS011;67772;50.158;8.658;2023-02-28T14:37:29;5.03;;;3.60;;
78482;SDS011;67772;50.158;8.658;2023-02-28T14:39:57;5.25;;;3.95;;
78482;SDS011;67772;50.158;8.658;2023-02-28T14:42:33;4.45;;;3.65;;
78482;SDS011;67772;50.158;8.658;2023-02-28T14:45:00;4.88;;;3.55;;
78482;SDS011;67772;50.158;8.658;2023-02-28T14:47:27;4.75;;;3.40;;
78482;SDS011;67772;50.158;8.658;2023-02-28T14:49:55;5.28;;;3.58;;
78482;SDS011;67772;50.158;8.658;2023-02-28T14:52:23;5.43;;;3.70;;
78482;SDS011;67772;50.158;8.658;2023-02-28T14:54:52;5.72;;;3.40;;
78482;SDS011;67772;50.158;8.658;2023-02-28T14:57:31;5.28;;;3.50;;
78482;SDS011;67772;50.158;8.658;2023-02-28T15:02:41;4.18;;;3.60;;
78482;SDS011;67772;50.158;8.658;2023-02-28T15:07:42;5.40;;;3.60;;
78482;SDS011;67772;50.158;8.658;2023-02-28T15:10:23;7.20;;;3.80;;
78482;SDS011;67772;50.158;8.658;2023-02-28T15:15:27;4.93;;;3.40;;
78482;SDS011;67772;50.158;8.658;2023-02-28T15:18:04;5.30;;;3.63;;
78482;SDS011;67772;50.158;8.658;2023-02-28T15:20:32;5.60;;;3.47;;
78482;SDS011;67772;50.158;8.658;2023-02-28T15:22:58;5.38;;;3.58;;
78482;SDS011;67772;50.158;8.658;2023-02-28T15:25:24;5.55;;;3.25;;
78482;SDS011;67772;50.158;8.658;2023-02-28T15:27:54;5.57;;;3.22;;
78482;SDS011;67772;50.158;8.658;2023-02-28T15:30:26;6.45;;;3.92;;
78482;SDS011;67772;50.158;8.658;2023-02-28T15:33:04;5.10;;;3.50;;
78482;SDS011;67772;50.158;8.658;2023-02-28T15:35:42;4.10;;;3.00;;
78482;SDS011;67772;50.158;8.658;2023-02-28T15:38:22;7.85;;;3.53;;
78482;SDS011;67772;50.158;8.658;2023-02-28T15:40:53;5.40;;;3.83;;
78482;SDS011;67772;50.158;8.658;2023-02-28T15:48:30;4.95;;;3.42;;
78482;SDS011;67772;50.158;8.658;2023-02-28T15:53:33;8.00;;;3.95;;
78482;SDS011;67772;50.158;8.658;2023-02-28T15:56:21;4.25;;;3.10;;
78482;SDS011;67772;50.158;8.658;2023-02-28T15:58:47;5.18;;;3.72;;
78482;SDS011;67772;50.158;8.658;2023-02-28T16:01:17;6.35;;;3.42;;
78482;SDS011;67772;50.158;8.658;2023-02-28T16:03:46;5.20;;;3.35;;
78482;SDS011;67772;50.158;8.658;2023-02-28T16:08:46;6.53;;;3.88;;
78482;SDS011;67772;50.158;8.658;2023-02-28T16:11:13;5.57;;;3.80;;
78482;SDS011;67772;50.158;8.658;2023-02-28T16:13:39;5.85;;;4.30;;
78482;SDS011;67772;50.158;8.658;2023-02-28T16:16:04;8.53;;;3.57;;
78482;SDS011;67772;50.158;8.658;2023-02-28T16:18:30;5.18;;;3.70;;
78482;SDS011;67772;50.158;8.658;2023-02-28T16:20:55;6.63;;;3.90;;
78482;SDS011;67772;50.158;8.658;2023-02-28T16:23:21;5.05;;;3.30;;
78482;SDS011;67772;50.158;8.658;2023-02-28T16:25:46;5.95;;;3.55;;
78482;SDS011;67772;50.158;8.658;2023-02-28T16:28:23;5.25;;;3.60;;
78482;SDS011;67772;50.158;8.658;2023-02-28T16:30:57;7.18;;;3.53;;
78482;SDS011;67772;50.158;8.658;2023-02-28T16:33:25;5.00;;;3.50;;
78482;SDS011;67772;50.158;8.658;2023-02-28T16:35:50;5.27;;;3.67;;
78482;SDS011;67772;50.158;8.658;2023-02-28T16:38:16;8.73;;;4.38;;
78482;SDS011;67772;50.158;8.658;2023-02-28T16:40:42;5.60;;;3.13;;
78482;SDS011;67772;50.158;8.658;2023-02-28T16:43:08;6.47;;;3.40;;
78482;SDS011;67772;50.158;8.658;2023-02-28T16:45:40;5.75;;;3.08;;
78482;SDS011;67772;50.158;8.658;2023-02-28T16:48:07;5.75;;;3.97;;
78482;SDS011;67772;50.158;8.658;2023-02-28T16:50:37;6.07;;;4.15;;
78482;SDS011;67772;50.158;8.658;2023-02-28T16:53:03;5.30;;;3.60;;
78482;SDS011;67772;50.158;8.658;2023-02-28T16:55:29;3.92;;;2.85;;
78482;SDS011;67772;50.158;8.658;2023-02-28T16:57:55;4.53;;;3.05;;
78482;SDS011;67772;50.158;8.658;2023-02-28T17:00:26;6.38;;;3.42;;
78482;SDS011;67772;50.158;8.658;2023-02-28T17:02:53;7.07;;;3.60;;
78482;SDS011;67772;50.158;8.658;2023-02-28T17:05:19;5.55;;;3.50;;
78482;SDS011;67772;50.158;8.658;2023-02-28T17:07:45;4.65;;;3.33;;
78482;SDS011;67772;50.158;8.658;2023-02-28T17:10:21;4.68;;;3.22;;
78482;SDS011;67772;50.158;8.658;2023-02-28T17:12:48;6.68;;;3.70;;
78482;SDS011;67772;50.158;8.658;2023-02-28T17:15:14;6.80;;;3.47;;
78482;SDS011;67772;50.158;8.658;2023-02-28T17:17:42;5.20;;;3.63;;
78482;SDS011;67772;50.158;8.658;2023-02-28T17:20:26;5.72;;;3.80;;
78482;SDS011;67772;50.158;8.658;2023-02-28T17:22:52;7.68;;;4.07;;
78482;SDS011;67772;50.158;8.658;2023-02-28T17:25:18;7.43;;;4.28;;
78482;SDS011;67772;50.158;8.658;2023-02-28T17:27:44;9.88;;;4.25;;
78482;SDS011;67772;50.158;8.658;2023-02-28T17:30:17;6.97;;;4.18;;
78482;SDS011;67772;50.158;8.658;2023-02-28T17:32:44;5.68;;;3.95;;
78482;SDS011;67772;50.158;8.658;2023-02-28T17:35:10;17.30;;;8.65;;
78482;SDS011;67772;50.158;8.658;2023-02-28T17:37:36;19.73;;;9.80;;
78482;SDS011;67772;50.158;8.658;2023-02-28T17:40:01;10.13;;;6.73;;
78482;SDS011;67772;50.158;8.658;2023-02-28T17:42:27;11.07;;;5.00;;
78482;SDS011;67772;50.158;8.658;2023-02-28T17:44:53;10.98;;;6.72;;